createdAt,value
2022-08-30T00:00:10.617Z,5.13
2022-08-30T00:02:57.691Z,6.45
2022-08-30T00:05:44.624Z,6.28
2022-08-30T00:08:31.645Z,4.40
2022-08-30T00:11:22.617Z,5.35
2022-08-30T00:14:03.737Z,6.82
2022-08-30T00:16:50.578Z,6.00
2022-08-30T00:19:30.741Z,4.68
2022-08-30T00:22:17.593Z,5.40
2022-08-30T00:24:57.784Z,6.60
2022-08-30T00:27:45.562Z,5.97
2022-08-30T00:30:27.795Z,5.43
2022-08-30T00:33:14.615Z,4.80
2022-08-30T00:35:54.785Z,4.85
2022-08-30T00:38:41.578Z,5.80
2022-08-30T00:41:29.642Z,4.85
2022-08-30T00:44:10.527Z,5.70
2022-08-30T00:46:57.612Z,6.30
2022-08-30T00:49:48.585Z,6.82
2022-08-30T00:52:30.833Z,7.30
2022-08-30T00:55:20.581Z,5.88
2022-08-30T00:58:05.753Z,5.60
2022-08-30T01:00:52.580Z,5.78
2022-08-30T01:03:34.750Z,6.15
2022-08-30T01:06:22.632Z,4.65
2022-08-30T01:09:10.563Z,5.22
2022-08-30T01:11:51.117Z,6.28
2022-08-30T01:14:38.528Z,5.10
2022-08-30T01:17:26.544Z,6.50
2022-08-30T01:20:20.863Z,5.78
2022-08-30T01:23:22.558Z,6.13
2022-08-30T01:26:09.556Z,6.03
2022-08-30T01:29:08.555Z,6.18
2022-08-30T01:31:56.498Z,6.05
2022-08-30T01:34:36.607Z,6.43
2022-08-30T01:37:33.493Z,6.07
2022-08-30T01:40:14.776Z,6.47
2022-08-30T01:43:01.530Z,6.57
2022-08-30T01:45:41.684Z,6.25
2022-08-30T01:48:31.185Z,5.60
2022-08-30T01:51:12.649Z,6.53
2022-08-30T01:54:00.506Z,5.25
2022-08-30T01:56:41.893Z,5.82
2022-08-30T01:59:28.522Z,5.45
2022-08-30T02:02:16.469Z,5.05
2022-08-30T02:05:03.475Z,6.80
2022-08-30T02:07:43.613Z,6.50
2022-08-30T02:10:30.477Z,5.72
2022-08-30T02:13:17.679Z,5.47
2022-08-30T02:15:58.080Z,6.13
2022-08-30T02:18:46.487Z,6.15
2022-08-30T02:21:33.613Z,5.50
2022-08-30T02:24:13.491Z,7.13
2022-08-30T02:27:07.474Z,8.27
2022-08-30T02:29:47.953Z,6.70
2022-08-30T02:32:34.459Z,6.90
2022-08-30T02:35:21.482Z,8.05
2022-08-30T02:38:01.549Z,6.53
2022-08-30T02:40:48.476Z,7.55
2022-08-30T02:43:28.567Z,7.45
2022-08-30T02:46:15.508Z,6.85
2022-08-30T02:48:55.544Z,7.72
2022-08-30T02:51:42.463Z,6.53
2022-08-30T02:54:23.585Z,7.20
2022-08-30T02:57:20.044Z,8.77
2022-08-30T03:00:00.677Z,6.38
2022-08-30T03:02:48.426Z,6.78
2022-08-30T03:05:28.566Z,7.97
2022-08-30T03:26:25.851Z,6.75
2022-08-30T03:31:54.001Z,7.15
2022-08-30T03:34:40.739Z,7.18
2022-08-30T03:37:24.372Z,8.05
2022-08-30T03:40:15.699Z,7.88
2022-08-30T03:42:55.823Z,8.52
2022-08-30T03:45:42.783Z,7.53
2022-08-30T03:48:29.724Z,6.75
2022-08-30T03:51:16.737Z,6.80
2022-08-30T03:53:56.842Z,27.08
2022-08-30T03:56:43.732Z,20.77
2022-08-30T03:59:23.795Z,27.15
2022-08-30T04:02:11.821Z,27.00
2022-08-30T04:04:51.812Z,15.93
2022-08-30T04:07:38.669Z,10.88
2022-08-30T04:10:21.573Z,10.43
2022-08-30T04:13:08.904Z,10.38
2022-08-30T04:15:55.775Z,9.90
2022-08-30T04:18:36.368Z,8.75
2022-08-30T04:21:22.700Z,10.00
2022-08-30T04:24:17.666Z,11.38
2022-08-30T04:27:04.955Z,12.63
2022-08-30T04:29:44.946Z,13.07
2022-08-30T04:32:31.706Z,12.85
2022-08-30T04:35:12.896Z,14.18
2022-08-30T04:37:59.854Z,11.70
2022-08-30T04:40:46.712Z,13.38
2022-08-30T04:43:34.682Z,12.63
2022-08-30T04:46:22.707Z,12.20
2022-08-30T04:49:04.322Z,11.57
2022-08-30T04:51:50.646Z,11.98
2022-08-30T04:54:31.298Z,12.60
2022-08-30T04:57:19.638Z,13.00
2022-08-30T05:00:07.655Z,15.93
2022-08-30T05:02:55.661Z,14.02
2022-08-30T05:05:48.835Z,14.23
2022-08-30T05:08:29.765Z,13.18
2022-08-30T05:11:16.597Z,12.35
2022-08-30T05:14:03.867Z,12.57
2022-08-30T05:16:44.251Z,13.27
2022-08-30T05:19:31.598Z,21.70
2022-08-30T05:22:18.618Z,19.05
2022-08-30T05:25:14.726Z,12.40
2022-08-30T05:28:08.619Z,15.00
2022-08-30T05:30:55.635Z,14.73
2022-08-30T05:33:38.752Z,13.07
2022-08-30T05:36:27.605Z,13.15
2022-08-30T05:39:14.644Z,13.25
2022-08-30T05:41:59.390Z,12.15
2022-08-30T05:44:46.587Z,15.38
2022-08-30T05:47:27.063Z,12.82
2022-08-30T05:50:16.589Z,13.40
2022-08-30T05:52:57.004Z,11.45
2022-08-30T05:55:43.596Z,11.63
2022-08-30T05:58:30.617Z,11.27
2022-08-30T06:01:11.740Z,13.35
2022-08-30T06:04:03.844Z,12.80
2022-08-30T06:06:47.801Z,12.60
2022-08-30T06:09:34.620Z,12.73
2022-08-30T06:12:14.776Z,13.55
2022-08-30T06:15:01.694Z,14.02
2022-08-30T06:17:41.739Z,15.95
2022-08-30T06:20:28.604Z,16.33
2022-08-30T06:23:08.695Z,17.30
2022-08-30T06:25:56.595Z,14.98
2022-08-30T06:28:36.849Z,13.93
2022-08-30T06:31:25.712Z,13.52
2022-08-30T06:34:05.707Z,12.13
2022-08-30T06:36:52.586Z,14.82
2022-08-30T06:39:39.652Z,12.45
2022-08-30T06:42:26.574Z,12.73
2022-08-30T06:45:14.600Z,13.40
2022-08-30T06:48:01.514Z,11.07
2022-08-30T06:50:51.598Z,11.02
2022-08-30T06:53:32.463Z,11.10
2022-08-30T06:56:22.607Z,14.45
2022-08-30T06:59:03.225Z,11.13
2022-08-30T07:01:49.679Z,10.48
2022-08-30T07:04:30.029Z,12.95
2022-08-30T07:07:16.539Z,9.93
2022-08-30T07:10:04.581Z,9.88
2022-08-30T07:12:51.555Z,10.98
2022-08-30T07:15:33.994Z,10.20
2022-08-30T07:18:45.523Z,10.30
2022-08-30T07:21:33.726Z,9.70
2022-08-30T07:24:21.505Z,10.20
2022-08-30T07:27:01.950Z,10.82
2022-08-30T07:29:48.518Z,10.02
2022-08-30T07:32:35.510Z,9.80
2022-08-30T07:35:22.540Z,10.50
2022-08-30T07:38:02.994Z,9.00
2022-08-30T07:40:51.489Z,9.50
2022-08-30T07:43:35.004Z,8.93
2022-08-30T07:46:22.576Z,8.70
2022-08-30T07:49:04.074Z,8.30
2022-08-30T07:51:51.455Z,7.97
2022-08-30T07:54:31.894Z,19.27
2022-08-30T07:57:18.500Z,9.82
2022-08-30T07:59:58.953Z,7.57
2022-08-30T08:02:52.558Z,9.23
2022-08-30T08:05:39.185Z,7.82
2022-08-30T08:08:27.460Z,6.78
2022-08-30T08:11:19.448Z,6.10
2022-08-30T08:14:00.578Z,6.88
2022-08-30T08:16:48.432Z,6.90
2022-08-30T08:19:28.548Z,6.22
2022-08-30T08:22:21.063Z,6.03
2022-08-30T08:25:15.458Z,6.95
2022-08-30T08:28:02.507Z,7.35
2022-08-30T08:30:51.484Z,6.53
2022-08-30T08:33:38.455Z,6.35
2022-08-30T08:36:18.703Z,6.72
2022-08-30T08:39:06.423Z,5.68
2022-08-30T08:41:52.595Z,5.53
2022-08-30T08:44:57.399Z,6.63
2022-08-30T08:47:47.446Z,8.73
2022-08-30T08:50:31.746Z,6.65
2022-08-30T08:53:47.013Z,6.05
2022-08-30T08:56:27.915Z,5.75
2022-08-30T08:59:14.401Z,6.80
2022-08-30T09:02:05.815Z,6.97
2022-08-30T09:04:46.474Z,5.80
2022-08-30T09:07:32.638Z,6.45
2022-08-30T09:10:40.425Z,5.65
2022-08-30T09:13:31.473Z,5.38
2022-08-30T09:16:22.298Z,6.25
2022-08-30T09:19:16.436Z,6.25
2022-08-30T09:22:47.126Z,6.80
2022-08-30T09:25:45.409Z,6.20
2022-08-30T09:28:38.517Z,5.88
2022-08-30T09:32:01.347Z,5.78
2022-08-30T09:34:57.411Z,7.25
2022-08-30T09:37:43.533Z,7.13
2022-08-30T09:40:38.423Z,6.15
2022-08-30T09:43:36.382Z,6.47
2022-08-30T09:46:31.418Z,5.97
2022-08-30T09:49:34.573Z,6.63
2022-08-30T09:52:41.414Z,6.10
2022-08-30T09:55:38.500Z,7.20
2022-08-30T09:58:43.386Z,6.47
2022-08-30T10:01:45.585Z,7.05
2022-08-30T10:05:14.357Z,6.93
2022-08-30T10:08:25.274Z,6.10
2022-08-30T10:11:18.347Z,5.18
2022-08-30T10:14:21.372Z,6.20
2022-08-30T10:17:27.006Z,5.47
2022-08-30T10:20:25.359Z,6.68
2022-08-30T10:23:41.078Z,5.25
2022-08-30T10:26:54.378Z,6.70
2022-08-30T10:29:51.579Z,6.07
2022-08-30T10:32:45.333Z,6.40
2022-08-30T10:35:36.856Z,6.20
2022-08-30T10:38:50.321Z,7.37
2022-08-30T10:41:49.309Z,5.88
2022-08-30T10:44:43.455Z,6.68
2022-08-30T10:47:51.432Z,5.60
2022-08-30T10:51:04.317Z,6.30
2022-08-30T10:53:56.400Z,5.35
2022-08-30T10:56:36.407Z,6.45
2022-08-30T10:59:25.283Z,5.70
2022-08-30T11:02:34.405Z,6.60
2022-08-30T11:05:40.728Z,5.53
2022-08-30T11:08:59.427Z,6.45
2022-08-30T11:11:51.341Z,7.18
2022-08-30T11:14:31.470Z,5.30
2022-08-30T11:17:45.309Z,5.45
2022-08-30T11:20:37.701Z,5.28
2022-08-30T11:23:42.279Z,5.85
2022-08-30T11:26:58.279Z,5.47
2022-08-30T11:29:44.187Z,5.88
2022-08-30T11:32:38.266Z,5.72
2022-08-30T11:35:48.661Z,5.32
2022-08-30T11:38:35.365Z,5.10
2022-08-30T11:41:42.527Z,4.05
2022-08-30T11:44:29.424Z,7.38
2022-08-30T11:47:54.252Z,5.28
2022-08-30T11:51:13.270Z,5.53
2022-08-30T11:54:09.944Z,5.47
2022-08-30T11:57:06.250Z,4.93
2022-08-30T12:05:58.931Z,5.47
2022-08-30T12:11:40.268Z,6.20
2022-08-30T12:14:52.000Z,5.60
2022-08-30T12:18:29.253Z,6.20
2022-08-30T12:21:33.410Z,4.82
2022-08-30T12:24:39.213Z,5.22
2022-08-30T12:27:45.239Z,5.45
2022-08-30T12:30:28.084Z,6.28
2022-08-30T12:33:15.221Z,6.03
2022-08-30T12:36:05.234Z,5.97
2022-08-30T12:38:45.290Z,5.45
2022-08-30T12:41:32.226Z,5.70
2022-08-30T12:44:23.259Z,6.20
2022-08-30T12:47:12.222Z,5.45
2022-08-30T12:50:03.275Z,5.55
2022-08-30T12:52:46.693Z,5.90
2022-08-30T12:55:38.210Z,5.57
2022-08-30T12:58:39.702Z,5.57
2022-08-30T13:01:39.315Z,6.63
2022-08-30T13:04:27.173Z,6.10
2022-08-30T13:07:15.224Z,5.32
2022-08-30T13:10:21.391Z,5.57
2022-08-30T13:13:14.222Z,5.38
2022-08-30T13:18:43.261Z,5.28
2022-08-30T13:21:41.171Z,7.55
2022-08-30T13:24:25.216Z,6.05
2022-08-30T13:27:18.170Z,5.90
2022-08-30T13:29:58.317Z,6.55
2022-08-30T13:32:45.227Z,5.95
2022-08-30T13:35:33.218Z,6.25
2022-08-30T13:38:21.167Z,6.57
2022-08-30T13:41:01.621Z,6.43
2022-08-30T13:46:55.367Z,7.93
2022-08-30T13:49:44.832Z,6.53
2022-08-30T13:52:28.246Z,6.00
2022-08-30T13:55:16.092Z,7.00
2022-08-30T13:58:03.111Z,6.75
2022-08-30T14:00:46.168Z,6.80
2022-08-30T14:03:33.235Z,5.57
2022-08-30T14:06:32.877Z,6.35
2022-08-30T14:09:14.158Z,7.07
2022-08-30T14:12:01.103Z,6.60
2022-08-30T14:14:43.240Z,5.60
2022-08-30T14:17:36.152Z,5.70
2022-08-30T14:20:17.855Z,6.97
2022-08-30T14:23:07.581Z,5.72
2022-08-30T14:26:04.103Z,6.40
2022-08-30T14:31:32.690Z,6.32
2022-08-30T14:34:13.665Z,6.75
2022-08-30T14:37:02.124Z,5.55
2022-08-30T14:39:42.834Z,7.60
2022-08-30T14:42:30.123Z,6.82
2022-08-30T14:45:18.088Z,6.20
2022-08-30T14:48:11.459Z,6.70
2022-08-30T14:50:52.754Z,8.55
2022-08-30T14:53:39.083Z,7.05
2022-08-30T14:56:28.041Z,13.10
2022-08-30T14:59:15.049Z,7.75
2022-08-30T15:02:03.091Z,6.72
2022-08-30T15:04:43.192Z,6.65
2022-08-30T15:07:30.063Z,7.25
2022-08-30T15:10:14.832Z,7.28
2022-08-30T15:28:00.748Z,6.13
2022-08-30T15:30:41.303Z,6.35
2022-08-30T15:33:29.718Z,6.63
2022-08-30T15:36:12.624Z,7.32
2022-08-30T15:39:00.137Z,6.73
2022-08-30T15:41:55.732Z,6.57
2022-08-30T15:44:44.752Z,7.30
2022-08-30T15:47:25.206Z,7.55
2022-08-30T15:50:16.733Z,6.85
2022-08-30T15:52:57.485Z,8.10
2022-08-30T15:55:44.735Z,7.25
2022-08-30T15:58:25.201Z,7.35
2022-08-30T16:01:12.769Z,7.60
2022-08-30T16:03:53.426Z,5.75
2022-08-30T16:06:44.743Z,7.03
2022-08-30T16:09:26.621Z,6.45
2022-08-30T16:12:23.718Z,6.55
2022-08-30T16:15:10.732Z,7.07
2022-08-30T16:17:58.689Z,6.97
2022-08-30T16:20:43.391Z,7.28
2022-08-30T16:23:33.479Z,5.85
2022-08-30T16:26:21.781Z,6.53
2022-08-30T16:29:02.702Z,6.75
2022-08-30T16:31:50.710Z,7.03
2022-08-30T16:34:30.724Z,7.70
2022-08-30T16:37:20.636Z,7.23
2022-08-30T16:40:07.684Z,8.30
2022-08-30T16:42:56.663Z,7.70
2022-08-30T16:45:37.757Z,7.15
2022-08-30T16:48:24.692Z,7.68
2022-08-30T16:51:15.643Z,7.55
2022-08-30T16:53:58.436Z,7.80
2022-08-30T16:56:46.629Z,8.03
2022-08-30T16:59:33.617Z,7.38
2022-08-30T17:02:13.808Z,8.10
2022-08-30T17:05:00.631Z,8.15
2022-08-30T17:07:47.695Z,8.48
2022-08-30T17:10:34.682Z,9.57
2022-08-30T17:13:22.750Z,8.88
2022-08-30T17:16:12.651Z,9.07
2022-08-30T17:19:00.589Z,7.50
2022-08-30T17:21:47.604Z,10.43
2022-08-30T17:24:27.988Z,8.93
2022-08-30T17:27:21.610Z,8.98
2022-08-30T17:30:08.621Z,8.50
2022-08-30T17:32:48.804Z,9.23
2022-08-30T17:35:35.590Z,8.18
2022-08-30T17:38:22.594Z,9.63
2022-08-30T17:41:09.263Z,9.90
2022-08-30T17:43:55.572Z,9.43
2022-08-30T17:46:42.651Z,9.02
2022-08-30T17:49:29.625Z,8.13
2022-08-30T17:52:11.557Z,8.93
2022-08-30T17:54:59.608Z,8.97
2022-08-30T17:57:43.078Z,8.60
2022-08-30T18:00:29.554Z,8.20
2022-08-30T18:03:16.616Z,9.43
2022-08-30T18:05:56.695Z,7.80
2022-08-30T18:08:44.585Z,8.75
2022-08-30T18:11:24.653Z,9.00
2022-08-30T18:14:11.569Z,7.90
2022-08-30T18:17:00.535Z,7.82
2022-08-30T18:19:47.585Z,9.20
2022-08-30T18:22:27.738Z,8.77
2022-08-30T18:25:16.520Z,9.05
2022-08-30T18:28:03.640Z,8.82
2022-08-30T18:30:44.110Z,9.40
2022-08-30T18:33:25.834Z,8.18
2022-08-30T18:36:12.579Z,8.13
2022-08-30T18:38:53.367Z,8.35
2022-08-30T18:41:42.969Z,7.90
2022-08-30T18:44:28.177Z,7.32
2022-08-30T18:47:17.503Z,9.10
2022-08-30T18:50:11.564Z,7.78
2022-08-30T18:52:52.726Z,8.93
2022-08-30T18:58:30.528Z,7.88
2022-08-30T19:01:22.611Z,8.43
2022-08-30T19:04:09.619Z,7.70
2022-08-30T19:06:50.970Z,7.90
2022-08-30T19:09:37.532Z,8.07
2022-08-30T19:12:24.525Z,8.95
2022-08-30T19:15:10.905Z,8.68
2022-08-30T19:17:59.502Z,8.65
2022-08-30T19:20:40.610Z,10.07
2022-08-30T19:26:35.503Z,9.45
2022-08-30T19:29:22.698Z,9.07
2022-08-30T19:32:04.535Z,9.10
2022-08-30T19:34:51.484Z,8.45
2022-08-30T19:37:39.584Z,10.07
2022-08-30T19:40:28.531Z,9.57
2022-08-30T19:43:08.644Z,9.10
2022-08-30T19:46:03.518Z,10.38
2022-08-30T19:48:43.701Z,9.63
2022-08-30T19:51:31.581Z,17.27
2022-08-30T19:54:13.572Z,12.25
2022-08-30T19:57:00.504Z,10.93
2022-08-30T19:59:40.616Z,11.02
2022-08-30T20:02:27.493Z,10.20
2022-08-30T20:05:14.552Z,9.60
2022-08-30T20:08:01.509Z,9.45
2022-08-30T20:10:49.492Z,10.73
2022-08-30T20:13:33.619Z,9.80
2022-08-30T20:16:20.466Z,9.85
2022-08-30T20:19:07.546Z,8.98
2022-08-30T20:21:47.626Z,8.70
2022-08-30T20:27:28.468Z,10.27
2022-08-30T20:30:17.497Z,10.38
2022-08-30T20:32:57.584Z,9.38
2022-08-30T20:35:49.067Z,9.18
2022-08-30T20:38:36.467Z,8.75
2022-08-30T20:41:25.430Z,9.70
2022-08-30T20:44:12.446Z,9.05
2022-08-30T20:47:01.613Z,9.30
2022-08-30T20:49:42.399Z,8.98
2022-08-30T20:52:29.427Z,9.07
2022-08-30T20:55:10.591Z,8.45
2022-08-30T20:57:57.466Z,9.32
2022-08-30T21:00:37.626Z,9.35
2022-08-30T21:03:27.611Z,8.80
2022-08-30T21:06:15.506Z,8.85
2022-08-30T21:09:02.667Z,10.32
2022-08-30T21:11:44.725Z,10.13
2022-08-30T21:14:24.886Z,9.68
2022-08-30T21:17:11.403Z,8.88
2022-08-30T21:20:01.398Z,9.20
2022-08-30T21:22:48.419Z,8.95
2022-08-30T21:25:35.438Z,9.60
2022-08-30T21:28:29.619Z,9.40
2022-08-30T21:31:21.417Z,10.05
2022-08-30T21:34:02.525Z,9.52
2022-08-30T21:36:53.428Z,10.07
2022-08-30T21:39:41.386Z,9.88
2022-08-30T21:42:28.377Z,10.23
2022-08-30T21:45:08.625Z,11.32
2022-08-30T21:47:55.359Z,10.90
2022-08-30T21:50:42.390Z,9.13
2022-08-30T21:53:29.380Z,7.50
2022-08-30T21:56:21.845Z,8.40
2022-08-30T21:59:10.380Z,8.43
2022-08-30T22:01:57.395Z,7.55
2022-08-30T22:04:45.420Z,7.78
2022-08-30T22:07:32.808Z,7.68
2022-08-30T22:10:15.357Z,7.40
2022-08-30T22:12:55.979Z,6.32
2022-08-30T22:15:44.313Z,7.13
2022-08-30T22:18:31.371Z,7.00
2022-08-30T22:21:13.429Z,7.38
2022-08-30T22:24:00.379Z,7.10
2022-08-30T22:26:47.695Z,8.18
2022-08-30T22:29:30.654Z,8.60
2022-08-30T22:32:20.517Z,8.30
2022-08-30T22:35:01.637Z,8.20
2022-08-30T22:37:53.291Z,9.52
2022-08-30T22:40:33.738Z,8.18
2022-08-30T22:43:21.372Z,8.48
2022-08-30T22:46:10.461Z,8.93
2022-08-30T22:48:57.372Z,9.88
2022-08-30T22:51:44.381Z,10.80
2022-08-30T22:54:24.989Z,9.35
2022-08-30T22:57:11.438Z,10.20
2022-08-30T22:59:58.365Z,10.15
2022-08-30T23:02:40.468Z,10.38
2022-08-30T23:05:31.327Z,10.30
2022-08-30T23:08:12.450Z,9.90
2022-08-30T23:10:59.274Z,9.63
2022-08-30T23:13:46.284Z,9.68
2022-08-30T23:16:26.783Z,10.00
2022-08-30T23:19:13.252Z,9.80
2022-08-30T23:21:53.991Z,9.48
2022-08-30T23:24:59.290Z,10.32
2022-08-30T23:28:12.285Z,10.30
2022-08-30T23:31:47.320Z,9.00
2022-08-30T23:34:53.262Z,9.93
2022-08-30T23:37:53.383Z,8.68
2022-08-30T23:40:59.230Z,9.38
2022-08-30T23:43:58.001Z,10.35
2022-08-30T23:47:04.198Z,9.13
2022-08-30T23:50:03.284Z,8.77
2022-08-30T23:53:09.255Z,10.73
2022-08-30T23:56:15.319Z,9.25
2022-08-30T23:59:21.219Z,9.05
